Startpagina
METAR-TAF:

METAR-TAF

Vliegvelden :

Aeropuerto Internacional Jorge Wilstermann

Cochabamba, Bolivia

breedte: 17-25S, lengte: 066-11W, hoogte: 2548 m

Actueel weer

Dit bericht is 27 minuten geleden gemaakt, om 15:00 UTC
Wind 3 kt uit het noordoosten
Temperatuur 20°C
Vochtigheid 32%
Druk 1025 hPa
Zicht: 9000 m
Weinig wolken op 3600 ft

METAR: SLCB 211500Z 05003KT 9000 FEW036 20/03 Q1025

Tijdstip: 11:27 (15:27 UTC)

Verwachting

Dit bericht is 5 uur en het 27 minuten geleden gemaakt, om 10:00 UTC
Verwachting geldig van 21 om 12 UTC tot 22 om 12 UTC
Wind kt uit het noorden
Zicht 10 km of meer
Weinig wolken op 3000 ft
Wijzigt naar
van 21 om 17 UTC tot 21 om 19 UTC
Wind 15 kt uit het zuidwesten
Weinig wolken op 3000 ft
Weinig wolken op 3300 ft, Cumulonimbus.
Verspreide wolken op 8000 ft
Wijzigt naar
van 22 om 03 UTC tot 22 om 05 UTC
Wind kt uit het noorden

TAF: SLCB 211000Z 2112/2212 00000KT 9999 FEW030 TX25/2119Z TN06/2211Z BECMG 2117/2119 23015KT FEW030 FEW033CB SCT080 BECMG 2203/2205 00000KT

Waarnemingen en weersverwachtingen van meer dan 4000 vliegvelden (METAR en TAF).

De beschikbare stations zijn de gele en rode punten op de kaart.

Ga met uw muis naar het station om de naam te zien.

Klik dan om waarnemingen en weersverwachtingen te zien.

kaart wijzigen: klik op de groene knoppen met een zwart kruis om in te zoomen, op de groene knop met een streepje om uit te zoomen of op de groene pijlen voor aangrenzende kaarten.


METAR-TAF: